N311TY KSNA-KCRQ
Flight info
| Callsign | N311TY |
|---|---|
| Flight time | 0h 21m |
| Altitude | 7000 |
| Route | SLI PACIF V208 OCN |
| Aircraft | C408/M-SDFGRY/S |
Departure
| Time | 2026-05-07 04:49 |
|---|---|
| Airport | John Wayne Orange County International Airport (KSNA) |
Arrival
| Time | 2026-05-07 05:11 |
|---|---|
| Airport | McClellan-Palomar Airport (KCRQ) |
| Time | Latitude | Longitude | Altitude | Speed | Heading |
|---|---|---|---|---|---|
| 2026-05-07 04:30 | 33.67491 | -117.87207 | 54 ft | 0 kts | 310° |
| 2026-05-07 04:42 | 33.67490 | -117.87206 | 54 ft | 2 kts | 309° |
| 2026-05-07 04:42 | 33.67494 | -117.87201 | 50 ft | 2 kts | 22° |
| 2026-05-07 04:43 | 33.67503 | -117.87173 | 54 ft | 3 kts | 98° |
| 2026-05-07 04:43 | 33.67489 | -117.87149 | 52 ft | 0 kts | 130° |
| 2026-05-07 04:45 | 33.67482 | -117.87138 | 54 ft | 8 kts | 130° |
| 2026-05-07 04:45 | 33.67476 | -117.87093 | 56 ft | 9 kts | 36° |
| 2026-05-07 04:46 | 33.67557 | -117.87042 | 54 ft | 16 kts | 28° |
| 2026-05-07 04:46 | 33.67669 | -117.86970 | 53 ft | 21 kts | 28° |
| 2026-05-07 04:46 | 33.67811 | -117.86881 | 53 ft | 25 kts | 26° |
| 2026-05-07 04:46 | 33.67914 | -117.86815 | 51 ft | 16 kts | 25° |
| 2026-05-07 04:47 | 33.68035 | -117.86758 | 46 ft | 20 kts | 29° |
| 2026-05-07 04:47 | 33.68134 | -117.86695 | 45 ft | 16 kts | 27° |
| 2026-05-07 04:47 | 33.68189 | -117.86644 | 46 ft | 9 kts | 66° |
| 2026-05-07 04:47 | 33.68194 | -117.86616 | 45 ft | 0 kts | 91° |
| 2026-05-07 04:48 | 33.68190 | -117.86591 | 45 ft | 11 kts | 107° |
| 2026-05-07 04:48 | 33.68147 | -117.86521 | 44 ft | 5 kts | 182° |
| 2026-05-07 04:48 | 33.68084 | -117.86560 | 46 ft | 26 kts | 207° |
| 2026-05-07 04:48 | 33.67743 | -117.86777 | 57 ft | 82 kts | 208° |
| 2026-05-07 04:49 | 33.67121 | -117.87168 | 99 ft | 117 kts | 207° |
| 2026-05-07 04:49 | 33.66400 | -117.87611 | 583 ft | 111 kts | 207° |
| 2026-05-07 04:49 | 33.65744 | -117.88006 | 1064 ft | 106 kts | 207° |
| 2026-05-07 04:49 | 33.65062 | -117.88402 | 1406 ft | 110 kts | 207° |
| 2026-05-07 04:50 | 33.64369 | -117.88795 | 1798 ft | 110 kts | 207° |
| 2026-05-07 04:50 | 33.63667 | -117.89181 | 2182 ft | 111 kts | 207° |
| 2026-05-07 04:50 | 33.62971 | -117.89570 | 2577 ft | 110 kts | 207° |
| 2026-05-07 04:50 | 33.62274 | -117.89969 | 2940 ft | 112 kts | 206° |
| 2026-05-07 04:51 | 33.61572 | -117.90378 | 3294 ft | 113 kts | 207° |
| 2026-05-07 04:51 | 33.60862 | -117.90796 | 3637 ft | 114 kts | 207° |
| 2026-05-07 04:51 | 33.60146 | -117.91215 | 3984 ft | 115 kts | 207° |
| 2026-05-07 04:51 | 33.59418 | -117.91638 | 4329 ft | 117 kts | 207° |
| 2026-05-07 04:52 | 33.58683 | -117.92064 | 4669 ft | 118 kts | 207° |
| 2026-05-07 04:52 | 33.57931 | -117.92474 | 4999 ft | 120 kts | 194° |
| 2026-05-07 04:52 | 33.57141 | -117.92229 | 5287 ft | 120 kts | 149° |
| 2026-05-07 04:52 | 33.56409 | -117.91730 | 5618 ft | 122 kts | 146° |
| 2026-05-07 04:53 | 33.55673 | -117.91215 | 5948 ft | 123 kts | 145° |
| 2026-05-07 04:53 | 33.55064 | -117.90553 | 6236 ft | 116 kts | 98° |
| 2026-05-07 04:53 | 33.54768 | -117.89669 | 6538 ft | 121 kts | 125° |
| 2026-05-07 04:53 | 33.54280 | -117.88874 | 6877 ft | 118 kts | 116° |
| 2026-05-07 04:54 | 33.53773 | -117.88051 | 7056 ft | 134 kts | 119° |
| 2026-05-07 04:54 | 33.53158 | -117.87068 | 7115 ft | 157 kts | 121° |
| 2026-05-07 04:54 | 33.52479 | -117.86009 | 7341 ft | 164 kts | 122° |
| 2026-05-07 04:54 | 33.51753 | -117.84871 | 7356 ft | 181 kts | 122° |
| 2026-05-07 04:55 | 33.50956 | -117.83624 | 7297 ft | 196 kts | 122° |
| 2026-05-07 04:55 | 33.50104 | -117.82294 | 7226 ft | 206 kts | 123° |
| 2026-05-07 04:55 | 33.49221 | -117.80916 | 7141 ft | 211 kts | 123° |
| 2026-05-07 04:55 | 33.48321 | -117.79512 | 7045 ft | 214 kts | 123° |
| 2026-05-07 04:56 | 33.47417 | -117.78099 | 7004 ft | 213 kts | 123° |
| 2026-05-07 04:56 | 33.46520 | -117.76698 | 7003 ft | 211 kts | 123° |
| 2026-05-07 04:56 | 33.45630 | -117.75307 | 7003 ft | 210 kts | 123° |
| 2026-05-07 04:56 | 33.44744 | -117.73923 | 7002 ft | 209 kts | 124° |
| 2026-05-07 04:57 | 33.43860 | -117.72542 | 7001 ft | 209 kts | 124° |
| 2026-05-07 04:57 | 33.42979 | -117.71169 | 6987 ft | 202 kts | 124° |
| 2026-05-07 04:57 | 33.42147 | -117.69879 | 6312 ft | 195 kts | 124° |
| 2026-05-07 04:57 | 33.41301 | -117.68552 | 5783 ft | 199 kts | 125° |
| 2026-05-07 04:58 | 33.40459 | -117.67241 | 5462 ft | 198 kts | 125° |
| 2026-05-07 04:58 | 33.39633 | -117.65954 | 5134 ft | 198 kts | 125° |
| 2026-05-07 04:58 | 33.38805 | -117.64666 | 4999 ft | 191 kts | 125° |
| 2026-05-07 04:58 | 33.37990 | -117.63392 | 5001 ft | 194 kts | 125° |
| 2026-05-07 04:59 | 33.37168 | -117.62109 | 5003 ft | 194 kts | 125° |
| 2026-05-07 04:59 | 33.36344 | -117.60827 | 5005 ft | 195 kts | 125° |
| 2026-05-07 04:59 | 33.35515 | -117.59538 | 4998 ft | 194 kts | 126° |
| 2026-05-07 04:59 | 33.34714 | -117.58296 | 4446 ft | 192 kts | 126° |
| 2026-05-07 05:00 | 33.33903 | -117.57036 | 3828 ft | 188 kts | 126° |
| 2026-05-07 05:00 | 33.33109 | -117.55798 | 3152 ft | 187 kts | 127° |
| 2026-05-07 05:00 | 33.32349 | -117.54620 | 2975 ft | 169 kts | 127° |
| 2026-05-07 05:00 | 33.31658 | -117.53547 | 2984 ft | 158 kts | 127° |
| 2026-05-07 05:01 | 33.30996 | -117.52516 | 2991 ft | 159 kts | 127° |
| 2026-05-07 05:01 | 33.30300 | -117.51436 | 2999 ft | 168 kts | 127° |
| 2026-05-07 05:01 | 33.29576 | -117.50310 | 3011 ft | 176 kts | 127° |
| 2026-05-07 05:01 | 33.28817 | -117.49134 | 3011 ft | 180 kts | 127° |
| 2026-05-07 05:02 | 33.28036 | -117.47921 | 3006 ft | 188 kts | 126° |
| 2026-05-07 05:02 | 33.27230 | -117.46673 | 3011 ft | 191 kts | 127° |
| 2026-05-07 05:02 | 33.26418 | -117.45413 | 3009 ft | 192 kts | 127° |
| 2026-05-07 05:02 | 33.25603 | -117.44152 | 3010 ft | 192 kts | 127° |
| 2026-05-07 05:03 | 33.24797 | -117.42903 | 3009 ft | 192 kts | 127° |
| 2026-05-07 05:03 | 33.24105 | -117.41551 | 3004 ft | 191 kts | 108° |
| 2026-05-07 05:03 | 33.23857 | -117.40010 | 3006 ft | 188 kts | 96° |
| 2026-05-07 05:03 | 33.23679 | -117.38470 | 2865 ft | 187 kts | 96° |
| 2026-05-07 05:04 | 33.23494 | -117.36919 | 2555 ft | 188 kts | 96° |
| 2026-05-07 05:04 | 33.23313 | -117.35379 | 2360 ft | 185 kts | 96° |
| 2026-05-07 05:04 | 33.23138 | -117.33890 | 2300 ft | 177 kts | 96° |
| 2026-05-07 05:04 | 33.22970 | -117.32452 | 2294 ft | 172 kts | 96° |
| 2026-05-07 05:05 | 33.22803 | -117.31037 | 2290 ft | 172 kts | 96° |
| 2026-05-07 05:05 | 33.22637 | -117.29626 | 2288 ft | 172 kts | 96° |
| 2026-05-07 05:05 | 33.22471 | -117.28218 | 2294 ft | 172 kts | 96° |
| 2026-05-07 05:05 | 33.22303 | -117.26807 | 2291 ft | 171 kts | 95° |
| 2026-05-07 05:06 | 33.22139 | -117.25407 | 2293 ft | 171 kts | 96° |
| 2026-05-07 05:06 | 33.21973 | -117.24007 | 2297 ft | 170 kts | 97° |
| 2026-05-07 05:06 | 33.21807 | -117.22603 | 2297 ft | 171 kts | 96° |
| 2026-05-07 05:06 | 33.21419 | -117.21313 | 2347 ft | 165 kts | 123° |
| 2026-05-07 05:07 | 33.20595 | -117.20356 | 2169 ft | 170 kts | 150° |
| 2026-05-07 05:07 | 33.19567 | -117.19702 | 2139 ft | 163 kts | 149° |
| 2026-05-07 05:07 | 33.18603 | -117.19060 | 2240 ft | 156 kts | 153° |
| 2026-05-07 05:07 | 33.17600 | -117.18592 | 2253 ft | 157 kts | 176° |
| 2026-05-07 05:08 | 33.16524 | -117.18723 | 2275 ft | 157 kts | 189° |
| 2026-05-07 05:08 | 33.15436 | -117.18909 | 2248 ft | 160 kts | 194° |
| 2026-05-07 05:08 | 33.14463 | -117.19357 | 2071 ft | 139 kts | 218° |
| 2026-05-07 05:08 | 33.13929 | -117.20204 | 2012 ft | 124 kts | 253° |
| 2026-05-07 05:09 | 33.13778 | -117.21217 | 1777 ft | 127 kts | 269° |
| 2026-05-07 05:09 | 33.13709 | -117.22241 | 1473 ft | 118 kts | 266° |
| 2026-05-07 05:09 | 33.13587 | -117.23179 | 1157 ft | 110 kts | 263° |
| 2026-05-07 05:09 | 33.13455 | -117.24074 | 995 ft | 111 kts | 261° |
| 2026-05-07 05:10 | 33.13316 | -117.24945 | 800 ft | 104 kts | 261° |
| 2026-05-07 05:10 | 33.13184 | -117.25782 | 640 ft | 105 kts | 259° |
| 2026-05-07 05:10 | 33.13044 | -117.26660 | 491 ft | 109 kts | 263° |
| 2026-05-07 05:10 | 33.12899 | -117.27550 | 330 ft | 107 kts | 260° |
| 2026-05-07 05:11 | 33.12795 | -117.28220 | 320 ft | 27 kts | 260° |
| 2026-05-07 05:11 | 33.12773 | -117.28258 | 321 ft | 13 kts | 197° |
| 2026-05-07 05:11 | 33.12709 | -117.28250 | 323 ft | 0 kts | 119° |
| 2026-05-07 05:12 | 33.12707 | -117.28241 | 324 ft | 8 kts | 103° |
| 2026-05-07 05:12 | 33.12727 | -117.28105 | 323 ft | 22 kts | 78° |
| 2026-05-07 05:12 | 33.12753 | -117.27948 | 319 ft | 20 kts | 78° |
| 2026-05-07 05:12 | 33.12774 | -117.27813 | 321 ft | 11 kts | 79° |
| 2026-05-07 05:13 | 33.12759 | -117.27751 | 321 ft | 8 kts | 168° |
| 2026-05-07 05:13 | 33.12689 | -117.27733 | 326 ft | 11 kts | 162° |
| 2026-05-07 05:13 | 33.12695 | -117.27686 | 326 ft | 9 kts | 42° |
| 2026-05-07 05:13 | 33.12715 | -117.27665 | 324 ft | 0 kts | 44° |